createdAt,value
2023-10-02T00:02:39.707Z,19.54
2023-10-02T00:05:11.427Z,19.51
2023-10-02T00:07:46.521Z,19.54
2023-10-02T00:10:18.096Z,19.56
2023-10-02T00:12:59.808Z,19.61
2023-10-02T00:15:28.790Z,19.63
2023-10-02T00:17:58.546Z,19.67
2023-10-02T00:20:28.099Z,19.67
2023-10-02T00:22:56.778Z,19.67
2023-10-02T00:25:29.247Z,19.65
2023-10-02T00:28:01.208Z,19.61
2023-10-02T00:30:37.515Z,19.58
2023-10-02T00:33:13.051Z,19.57
2023-10-02T00:35:52.626Z,19.58
2023-10-02T00:38:21.447Z,19.56
2023-10-02T00:40:52.173Z,19.56
2023-10-02T00:43:35.906Z,19.55
2023-10-02T00:46:05.593Z,19.54
2023-10-02T00:48:35.230Z,19.54
2023-10-02T00:51:12.953Z,19.56
2023-10-02T00:53:49.576Z,19.58
2023-10-02T00:56:22.818Z,19.60
2023-10-02T00:59:00.834Z,19.61
2023-10-02T01:01:32.393Z,19.62
2023-10-02T01:04:13.388Z,19.62
2023-10-02T01:07:07.089Z,19.61
2023-10-02T01:09:36.922Z,19.61
2023-10-02T01:12:11.939Z,19.62
2023-10-02T01:14:52.706Z,19.61
2023-10-02T01:17:23.560Z,19.59
2023-10-02T01:19:57.550Z,19.60
2023-10-02T01:22:29.060Z,19.58
2023-10-02T01:25:14.295Z,19.59
2023-10-02T01:27:48.675Z,19.57
2023-10-02T01:30:20.002Z,19.55
2023-10-02T01:33:08.582Z,19.52
2023-10-02T01:35:38.679Z,19.48
2023-10-02T01:38:14.316Z,19.45
2023-10-02T01:40:50.726Z,19.44
2023-10-02T01:43:25.640Z,19.43
2023-10-02T01:45:58.357Z,19.43
2023-10-02T01:48:41.526Z,19.43
2023-10-02T01:51:21.634Z,19.42
2023-10-02T01:53:54.311Z,19.42
2023-10-02T01:56:27.139Z,19.43
2023-10-02T01:59:09.787Z,19.40
2023-10-02T02:01:53.382Z,19.30
2023-10-02T02:04:24.418Z,19.20
2023-10-02T02:06:55.829Z,19.10
2023-10-02T02:09:26.411Z,19.03
2023-10-02T02:12:08.671Z,18.96
2023-10-02T02:14:42.942Z,18.94
2023-10-02T02:17:13.175Z,18.95
2023-10-02T02:19:50.237Z,18.98
2023-10-02T02:22:24.726Z,19.00
2023-10-02T02:24:54.509Z,19.03
2023-10-02T02:27:24.649Z,19.02
2023-10-02T02:29:58.116Z,19.00
2023-10-02T02:32:45.691Z,18.94
2023-10-02T02:35:16.908Z,18.88
2023-10-02T02:37:46.335Z,18.81
2023-10-02T02:40:27.882Z,18.75
2023-10-02T02:42:58.581Z,18.72
2023-10-02T02:45:30.323Z,18.71
2023-10-02T02:48:06.555Z,18.68
2023-10-02T02:50:37.416Z,18.64
2023-10-02T02:53:23.479Z,18.61
2023-10-02T02:56:16.488Z,18.54
2023-10-02T02:58:49.622Z,18.51
2023-10-02T03:01:23.767Z,18.49
2023-10-02T03:03:53.339Z,18.48
2023-10-02T03:06:24.544Z,18.51
2023-10-02T03:08:54.290Z,18.57
2023-10-02T03:11:30.385Z,18.62
2023-10-02T03:14:13.934Z,18.65
2023-10-02T03:16:46.344Z,18.67
2023-10-02T03:19:17.697Z,18.72
2023-10-02T03:21:48.582Z,18.73
2023-10-02T03:24:20.715Z,18.75
2023-10-02T03:26:55.020Z,18.75
2023-10-02T03:29:24.987Z,18.75
2023-10-02T03:31:54.110Z,18.75
2023-10-02T03:34:36.254Z,18.73
2023-10-02T03:37:14.848Z,18.70
2023-10-02T03:40:01.067Z,18.66
2023-10-02T03:42:33.856Z,18.60
2023-10-02T03:45:06.625Z,18.52
2023-10-02T03:47:36.340Z,18.48
2023-10-02T03:50:11.643Z,18.44
2023-10-02T03:52:42.797Z,18.40
2023-10-02T03:55:19.930Z,18.33
2023-10-02T03:57:52.567Z,18.25
2023-10-02T04:00:24.050Z,18.20
2023-10-02T04:02:55.455Z,18.13
2023-10-02T04:05:37.360Z,18.08
2023-10-02T04:08:23.593Z,18.02
2023-10-02T04:10:57.562Z,17.99
2023-10-02T04:13:30.438Z,17.95
2023-10-02T04:16:14.781Z,17.92
2023-10-02T04:18:51.235Z,17.91
2023-10-02T04:21:24.626Z,17.89
2023-10-02T04:23:54.748Z,17.90
2023-10-02T04:26:25.257Z,17.91
2023-10-02T04:29:00.520Z,17.91
2023-10-02T04:31:35.738Z,17.91
2023-10-02T04:34:17.638Z,17.90
2023-10-02T04:36:46.642Z,17.85
2023-10-02T04:39:33.904Z,17.82
2023-10-02T04:42:23.959Z,17.77
2023-10-02T04:44:58.498Z,17.74
2023-10-02T04:47:32.402Z,17.71
2023-10-02T04:50:20.056Z,17.68
2023-10-02T04:52:59.411Z,17.67
2023-10-02T04:55:33.020Z,17.66
2023-10-02T04:58:10.888Z,17.66
2023-10-02T05:01:03.522Z,17.65
2023-10-02T05:03:35.771Z,17.63
2023-10-02T05:06:05.691Z,17.64
2023-10-02T05:08:41.578Z,17.64
2023-10-02T05:11:25.634Z,17.63
2023-10-02T05:14:01.666Z,17.63
2023-10-02T05:16:35.115Z,17.64
2023-10-02T05:19:08.179Z,17.67
2023-10-02T05:21:37.844Z,17.69
2023-10-02T05:24:13.092Z,17.71
2023-10-02T05:26:45.487Z,17.71
2023-10-02T05:29:19.315Z,17.74
2023-10-02T05:31:49.058Z,17.76
2023-10-02T05:34:24.377Z,17.76
2023-10-02T05:37:13.994Z,17.73
2023-10-02T05:39:43.186Z,17.69
2023-10-02T05:42:15.265Z,17.66
2023-10-02T05:44:48.428Z,17.64
2023-10-02T05:47:17.982Z,17.62
2023-10-02T05:49:51.149Z,17.60
2023-10-02T05:52:26.756Z,17.58
2023-10-02T05:54:56.085Z,17.59
2023-10-02T05:57:32.981Z,17.59
2023-10-02T06:00:06.500Z,17.59
2023-10-02T06:02:35.599Z,17.60
2023-10-02T06:05:13.543Z,17.61
2023-10-02T06:07:42.266Z,17.62
2023-10-02T06:10:26.343Z,17.66
2023-10-02T06:13:04.990Z,17.72
2023-10-02T06:15:48.542Z,17.78
2023-10-02T06:18:26.394Z,17.87
2023-10-02T06:21:02.559Z,17.97
2023-10-02T06:23:39.227Z,18.04
2023-10-02T06:26:11.245Z,18.10
2023-10-02T06:28:43.611Z,18.20
2023-10-02T06:31:12.310Z,18.28
2023-10-02T06:33:40.803Z,18.36
2023-10-02T06:36:11.347Z,18.43
2023-10-02T06:38:41.363Z,18.50
2023-10-02T06:41:14.414Z,18.56
2023-10-02T06:43:43.537Z,18.60
2023-10-02T06:46:17.303Z,18.63
2023-10-02T06:48:48.362Z,18.68
2023-10-02T06:51:20.425Z,18.71
2023-10-02T06:53:51.170Z,18.70
2023-10-02T06:56:20.738Z,18.67
2023-10-02T06:58:53.654Z,18.69
2023-10-02T07:01:28.642Z,18.69
2023-10-02T07:04:10.708Z,18.73
2023-10-02T07:06:41.058Z,18.75
2023-10-02T07:09:19.684Z,18.75
2023-10-02T07:11:48.099Z,18.77
2023-10-02T07:14:16.919Z,18.78
2023-10-02T07:16:48.813Z,18.82
2023-10-02T07:19:28.709Z,18.84
2023-10-02T07:21:58.548Z,18.86
2023-10-02T07:24:29.698Z,18.91
2023-10-02T07:27:00.618Z,18.94
2023-10-02T07:29:40.474Z,18.98
2023-10-02T07:32:11.011Z,19.00
2023-10-02T07:34:40.602Z,19.02
2023-10-02T07:37:12.084Z,19.08
2023-10-02T07:39:40.574Z,19.14
2023-10-02T07:42:11.808Z,19.22
2023-10-02T07:44:41.864Z,19.30
2023-10-02T07:47:18.111Z,19.43
2023-10-02T07:49:50.323Z,19.55
2023-10-02T07:52:38.122Z,19.68
2023-10-02T07:55:12.172Z,19.84
2023-10-02T07:57:41.127Z,19.93
2023-10-02T08:00:31.885Z,20.02
2023-10-02T08:03:03.943Z,20.14
2023-10-02T08:05:35.967Z,20.18
2023-10-02T08:08:10.713Z,20.22
2023-10-02T08:10:51.406Z,20.30
2023-10-02T08:13:33.603Z,20.36
2023-10-02T08:16:13.258Z,20.42
2023-10-02T08:18:55.883Z,20.46
2023-10-02T08:21:35.620Z,20.50
2023-10-02T08:24:07.039Z,20.58
2023-10-02T08:26:41.762Z,20.70
2023-10-02T08:29:12.106Z,20.77
2023-10-02T08:31:44.707Z,20.82
2023-10-02T08:34:15.829Z,20.85
2023-10-02T08:36:44.985Z,20.89
2023-10-02T08:39:23.277Z,20.92
2023-10-02T08:41:52.993Z,20.98
2023-10-02T08:44:24.092Z,21.10
2023-10-02T08:46:56.784Z,21.16
2023-10-02T08:49:27.577Z,21.24
2023-10-02T08:51:57.860Z,21.39
2023-10-02T08:54:30.042Z,21.52
2023-10-02T08:57:08.282Z,21.56
2023-10-02T08:59:43.927Z,21.61
2023-10-02T09:02:17.747Z,21.79
2023-10-02T09:05:11.707Z,22.01
2023-10-02T09:08:02.735Z,22.17
2023-10-02T09:10:36.458Z,22.27
2023-10-02T09:13:16.094Z,22.33
2023-10-02T09:15:50.835Z,22.34
2023-10-02T09:18:36.637Z,22.31
2023-10-02T09:21:16.933Z,22.27
2023-10-02T09:23:53.188Z,22.28
2023-10-02T09:26:26.450Z,22.37
2023-10-02T09:29:02.984Z,22.52
2023-10-02T09:31:36.214Z,22.68
2023-10-02T09:34:44.431Z,22.80
2023-10-02T09:38:05.086Z,22.93
2023-10-02T09:40:15.195Z,23.01
2023-10-02T09:42:49.829Z,23.17
2023-10-02T09:45:32.962Z,23.34
2023-10-02T09:48:07.356Z,23.45
2023-10-02T09:50:47.875Z,23.69
2023-10-02T09:53:18.771Z,23.90
2023-10-02T09:56:10.619Z,24.03
2023-10-02T09:58:50.724Z,24.07
2023-10-02T10:01:36.562Z,24.07
2023-10-02T10:04:25.607Z,24.06
2023-10-02T10:07:28.253Z,23.98
2023-10-02T10:10:29.368Z,23.85
2023-10-02T10:12:59.721Z,23.79
2023-10-02T10:15:33.124Z,23.76
2023-10-02T10:18:04.740Z,23.85
2023-10-02T10:20:32.479Z,23.99
2023-10-02T10:23:24.961Z,24.08
2023-10-02T10:25:54.861Z,24.14
2023-10-02T10:28:30.595Z,24.20
2023-10-02T10:31:10.297Z,24.25
2023-10-02T10:33:42.871Z,24.27
2023-10-02T10:36:38.703Z,24.45
2023-10-02T10:39:44.732Z,24.58
2023-10-02T10:42:12.353Z,24.59
2023-10-02T10:44:44.719Z,24.55
2023-10-02T10:47:15.880Z,24.48
2023-10-02T10:49:55.667Z,24.43
2023-10-02T10:52:36.204Z,24.47
2023-10-02T10:55:33.656Z,24.46
2023-10-02T10:58:06.917Z,24.57
2023-10-02T11:00:43.412Z,24.54
2023-10-02T11:03:16.333Z,24.55
2023-10-02T11:05:45.644Z,24.56
2023-10-02T11:08:30.112Z,24.51
2023-10-02T11:11:12.715Z,24.48
2023-10-02T11:13:54.148Z,24.52
2023-10-02T11:16:36.414Z,24.61
2023-10-02T11:19:31.702Z,24.74
2023-10-02T11:22:18.252Z,24.87
2023-10-02T11:24:50.887Z,25.04
2023-10-02T11:27:19.651Z,25.19
2023-10-02T11:30:04.812Z,25.27
2023-10-02T11:32:52.021Z,25.26
2023-10-02T11:35:22.616Z,25.33
2023-10-02T11:37:52.151Z,25.42
2023-10-02T11:40:25.635Z,25.46
2023-10-02T11:42:54.809Z,25.52
2023-10-02T11:45:23.308Z,25.56
2023-10-02T11:47:52.637Z,25.60
2023-10-02T11:50:23.067Z,25.63
2023-10-02T11:52:52.004Z,25.66
2023-10-02T11:55:20.526Z,25.79
2023-10-02T11:57:52.855Z,25.87
2023-10-02T12:00:23.712Z,26.03
2023-10-02T12:02:52.819Z,26.11
2023-10-02T12:05:24.166Z,26.22
2023-10-02T12:07:52.942Z,26.21
2023-10-02T12:10:22.005Z,26.15
2023-10-02T12:12:50.596Z,26.18
2023-10-02T12:15:20.776Z,26.27
2023-10-02T12:17:49.928Z,26.30
2023-10-02T12:20:24.492Z,26.28
2023-10-02T12:22:54.947Z,26.16
2023-10-02T12:25:23.606Z,26.12
2023-10-02T12:27:53.597Z,26.22
2023-10-02T12:30:22.199Z,26.42
2023-10-02T12:32:51.743Z,26.59
2023-10-02T12:35:20.971Z,26.78
2023-10-02T12:37:51.825Z,27.11
2023-10-02T12:40:23.236Z,27.43
2023-10-02T12:42:51.843Z,27.43
2023-10-02T12:45:20.380Z,27.48
2023-10-02T12:47:49.164Z,27.53
2023-10-02T12:50:19.824Z,27.59
2023-10-02T12:52:48.244Z,27.52
2023-10-02T12:55:18.194Z,27.36
2023-10-02T12:57:48.108Z,27.22
2023-10-02T13:00:19.608Z,27.17
2023-10-02T13:02:49.665Z,27.18
2023-10-02T13:05:21.118Z,27.16
2023-10-02T13:07:52.021Z,27.17
2023-10-02T13:10:20.510Z,27.28
2023-10-02T13:12:50.719Z,27.37
2023-10-02T13:15:20.373Z,27.29
2023-10-02T13:17:49.529Z,27.26
2023-10-02T13:20:18.163Z,27.21
2023-10-02T13:22:48.159Z,27.17
2023-10-02T13:25:17.055Z,27.02
2023-10-02T13:27:45.694Z,26.88
2023-10-02T13:30:20.148Z,26.72
2023-10-02T13:32:48.730Z,26.58
2023-10-02T13:35:17.522Z,26.51
2023-10-02T13:37:46.280Z,26.50
2023-10-02T13:40:32.816Z,26.54
2023-10-02T13:43:01.852Z,26.59
2023-10-02T13:45:31.784Z,26.66
2023-10-02T13:48:00.468Z,26.62
2023-10-02T13:50:29.918Z,26.51
2023-10-02T13:53:00.505Z,26.49
2023-10-02T13:55:29.248Z,26.48
2023-10-02T13:57:58.543Z,26.41
2023-10-02T14:00:27.854Z,26.33
2023-10-02T14:02:58.034Z,26.36
2023-10-02T14:05:30.757Z,26.36
2023-10-02T14:07:59.714Z,26.32
2023-10-02T14:10:30.837Z,26.28
2023-10-02T14:12:59.349Z,26.37
2023-10-02T14:15:28.597Z,26.48
2023-10-02T14:17:58.707Z,26.55
2023-10-02T14:20:28.221Z,26.57
2023-10-02T14:22:57.059Z,26.57
2023-10-02T14:25:25.947Z,26.57
2023-10-02T14:27:54.826Z,26.61
2023-10-02T14:30:24.150Z,26.62
2023-10-02T14:32:54.083Z,26.59
2023-10-02T14:35:42.994Z,26.55
2023-10-02T14:38:15.990Z,26.50
2023-10-02T14:40:46.290Z,26.48
2023-10-02T14:43:15.730Z,26.49
2023-10-02T14:45:46.901Z,26.49
2023-10-02T14:48:36.026Z,26.41
2023-10-02T14:51:10.919Z,26.31
2023-10-02T14:53:40.036Z,26.30
2023-10-02T14:56:08.482Z,26.42
2023-10-02T14:58:42.362Z,26.57
2023-10-02T15:01:14.213Z,26.59
2023-10-02T15:03:43.819Z,26.61
2023-10-02T15:06:14.075Z,26.63
2023-10-02T15:08:43.096Z,26.57
2023-10-02T15:11:15.682Z,26.50
2023-10-02T15:13:46.511Z,26.42
2023-10-02T15:16:17.017Z,26.41
2023-10-02T15:18:47.492Z,26.37
2023-10-02T15:21:20.446Z,26.18
2023-10-02T15:23:49.635Z,26.02
2023-10-02T15:26:19.358Z,25.91
2023-10-02T15:28:51.476Z,25.87
2023-10-02T15:31:21.455Z,25.83
2023-10-02T15:33:50.061Z,25.79
2023-10-02T15:36:19.993Z,25.81
2023-10-02T15:38:49.462Z,25.83
2023-10-02T15:41:31.981Z,25.83
2023-10-02T15:44:01.244Z,25.84
2023-10-02T15:46:30.045Z,25.88
2023-10-02T15:48:59.157Z,25.93
2023-10-02T15:51:29.378Z,25.89
2023-10-02T15:53:57.858Z,25.77
2023-10-02T15:56:28.828Z,25.66
2023-10-02T15:58:57.789Z,25.56
2023-10-02T16:01:26.844Z,25.47
2023-10-02T16:03:55.357Z,25.38
2023-10-02T16:06:25.316Z,25.33
2023-10-02T16:08:55.772Z,25.24
2023-10-02T16:11:24.873Z,25.16
2023-10-02T16:13:53.805Z,25.10
2023-10-02T16:16:24.632Z,25.09
2023-10-02T16:18:53.460Z,25.10
2023-10-02T16:21:23.592Z,25.12
2023-10-02T16:23:54.213Z,25.11
2023-10-02T16:26:25.445Z,25.13
2023-10-02T16:28:54.065Z,25.12
2023-10-02T16:31:26.768Z,25.10
2023-10-02T16:33:55.653Z,25.06
2023-10-02T16:36:26.523Z,25.02
2023-10-02T16:39:05.593Z,24.96
2023-10-02T16:41:36.912Z,24.87
2023-10-02T16:44:06.694Z,24.75
2023-10-02T16:46:36.835Z,24.61
2023-10-02T16:49:06.293Z,24.44
2023-10-02T16:51:35.004Z,24.24
2023-10-02T16:54:05.232Z,24.07
2023-10-02T16:56:33.851Z,23.88
2023-10-02T16:59:03.441Z,23.73
2023-10-02T17:01:32.154Z,23.61
2023-10-02T17:04:00.665Z,23.53
2023-10-02T17:06:29.220Z,23.49
2023-10-02T17:08:57.648Z,23.46
2023-10-02T17:11:29.207Z,23.44
2023-10-02T17:13:57.809Z,23.41
2023-10-02T17:16:26.314Z,23.37
2023-10-02T17:18:54.822Z,23.35
2023-10-02T17:21:30.764Z,23.33
2023-10-02T17:24:00.023Z,23.31
2023-10-02T17:26:32.461Z,23.31
2023-10-02T17:29:03.766Z,23.28
2023-10-02T17:31:32.511Z,23.26
2023-10-02T17:34:01.174Z,23.23
2023-10-02T17:36:30.590Z,23.20
2023-10-02T17:39:00.179Z,23.15
2023-10-02T17:41:30.496Z,23.11
2023-10-02T17:43:58.991Z,23.06
2023-10-02T17:46:27.480Z,23.00
2023-10-02T17:48:55.941Z,22.94
2023-10-02T17:51:25.985Z,22.89
2023-10-02T17:53:55.089Z,22.85
2023-10-02T17:56:23.599Z,22.82
2023-10-02T17:58:53.538Z,22.81
2023-10-02T18:01:21.989Z,22.80
2023-10-02T18:03:50.692Z,22.79
2023-10-02T18:06:20.845Z,22.79
2023-10-02T18:08:49.282Z,22.78
2023-10-02T18:11:17.714Z,22.78
2023-10-02T18:13:46.169Z,22.77
2023-10-02T18:16:19.662Z,22.78
2023-10-02T18:18:48.126Z,22.78
2023-10-02T18:21:17.336Z,22.78
2023-10-02T18:23:46.230Z,22.77
2023-10-02T18:26:14.788Z,22.75
2023-10-02T18:28:45.010Z,22.75
2023-10-02T18:31:13.935Z,22.75
2023-10-02T18:33:43.964Z,22.75
2023-10-02T18:36:12.540Z,22.74
2023-10-02T18:38:41.116Z,22.72
2023-10-02T18:41:11.842Z,22.70
2023-10-02T18:43:40.504Z,22.68
2023-10-02T18:46:09.466Z,22.67
2023-10-02T18:48:38.651Z,22.66
2023-10-02T18:51:17.594Z,22.63
2023-10-02T18:53:46.164Z,22.62
2023-10-02T18:56:14.854Z,22.60
2023-10-02T18:58:43.458Z,22.59
2023-10-02T19:01:15.541Z,22.56
2023-10-02T19:03:44.941Z,22.55
2023-10-02T19:06:19.566Z,22.52
2023-10-02T19:08:48.457Z,22.47
2023-10-02T19:11:17.735Z,22.39
2023-10-02T19:13:48.421Z,22.29
2023-10-02T19:16:18.402Z,22.19
2023-10-02T19:18:47.823Z,22.11
2023-10-02T19:21:17.684Z,22.00
2023-10-02T19:23:46.208Z,21.94
2023-10-02T19:26:14.777Z,21.85
2023-10-02T19:28:43.844Z,21.80
2023-10-02T19:31:12.826Z,21.85
2023-10-02T19:33:41.480Z,21.78
2023-10-02T19:36:09.977Z,21.71
2023-10-02T19:38:39.920Z,21.64
2023-10-02T19:41:16.103Z,21.56
2023-10-02T19:43:45.211Z,21.49
2023-10-02T19:46:15.682Z,21.40
2023-10-02T19:48:44.609Z,21.32
2023-10-02T19:51:14.822Z,21.24
2023-10-02T19:53:45.764Z,21.18
2023-10-02T19:56:15.323Z,21.10
2023-10-02T19:58:44.319Z,21.02
2023-10-02T20:01:12.886Z,20.97
2023-10-02T20:03:41.457Z,20.91
2023-10-02T20:06:12.010Z,20.86
2023-10-02T20:08:42.281Z,20.79
2023-10-02T20:11:12.778Z,20.73
2023-10-02T20:13:41.326Z,20.66
2023-10-02T20:16:09.980Z,20.61
2023-10-02T20:18:38.776Z,20.57
2023-10-02T20:21:07.448Z,20.51
2023-10-02T20:23:51.467Z,20.47
2023-10-02T20:26:22.322Z,20.40
2023-10-02T20:28:51.029Z,20.37
2023-10-02T20:31:19.528Z,20.33
2023-10-02T20:33:48.061Z,20.30
2023-10-02T20:36:16.559Z,20.25
2023-10-02T20:38:45.189Z,20.22
2023-10-02T20:41:13.673Z,20.16
2023-10-02T20:43:43.638Z,20.13
2023-10-02T20:46:15.639Z,20.10
2023-10-02T20:48:44.410Z,20.06
2023-10-02T20:51:15.227Z,20.04
2023-10-02T20:53:44.943Z,20.00
2023-10-02T20:56:13.563Z,19.98
2023-10-02T20:58:43.585Z,19.95
2023-10-02T21:01:14.184Z,19.92
2023-10-02T21:03:42.956Z,19.92
2023-10-02T21:06:11.493Z,19.90
2023-10-02T21:08:40.281Z,19.91
2023-10-02T21:11:08.820Z,19.91
2023-10-02T21:13:37.396Z,19.91
2023-10-02T21:16:07.506Z,19.91
2023-10-02T21:18:36.238Z,19.93
2023-10-02T21:21:05.324Z,19.92
2023-10-02T21:23:34.657Z,19.94
2023-10-02T21:26:05.531Z,19.95
2023-10-02T21:28:34.245Z,19.95
2023-10-02T21:31:04.623Z,19.96
2023-10-02T21:33:34.911Z,19.97
2023-10-02T21:36:06.082Z,19.99
2023-10-02T21:38:35.567Z,19.99
2023-10-02T21:41:13.052Z,20.00
2023-10-02T21:43:42.133Z,20.00
2023-10-02T21:46:11.799Z,20.00
2023-10-02T21:48:43.212Z,19.99
2023-10-02T21:51:13.223Z,20.00
2023-10-02T21:53:41.847Z,20.00
2023-10-02T21:56:17.125Z,19.99
2023-10-02T21:58:50.193Z,19.98
2023-10-02T22:01:19.211Z,19.96
2023-10-02T22:03:53.979Z,19.94
2023-10-02T22:06:23.030Z,19.90
2023-10-02T22:08:53.029Z,19.90
2023-10-02T22:11:22.585Z,19.92
2023-10-02T22:13:52.125Z,19.92
2023-10-02T22:16:20.774Z,19.93
2023-10-02T22:18:52.101Z,19.96
2023-10-02T22:21:24.652Z,19.98
2023-10-02T22:23:54.509Z,19.99
2023-10-02T22:26:23.543Z,19.98
2023-10-02T22:28:52.629Z,20.02
2023-10-02T22:31:21.821Z,20.04
2023-10-02T22:33:51.960Z,20.05
2023-10-02T22:36:20.897Z,20.06
2023-10-02T22:38:49.433Z,20.05
2023-10-02T22:41:17.896Z,20.04
2023-10-02T22:43:47.281Z,20.03
2023-10-02T22:46:16.020Z,20.01
2023-10-02T22:48:44.670Z,19.99
2023-10-02T22:51:19.702Z,19.99
2023-10-02T22:53:49.479Z,19.98
2023-10-02T22:56:19.105Z,19.98
2023-10-02T22:58:49.695Z,19.96
2023-10-02T23:01:18.359Z,19.94
2023-10-02T23:03:46.969Z,19.93
2023-10-02T23:06:16.979Z,19.92
2023-10-02T23:08:45.713Z,19.91
2023-10-02T23:11:15.211Z,19.90
2023-10-02T23:13:43.883Z,19.89
2023-10-02T23:16:13.593Z,19.88
2023-10-02T23:18:42.154Z,19.88
2023-10-02T23:21:10.637Z,19.87
2023-10-02T23:23:40.941Z,19.87
2023-10-02T23:26:18.039Z,19.86
2023-10-02T23:28:47.744Z,19.86
2023-10-02T23:31:16.512Z,19.85
2023-10-02T23:33:45.067Z,19.84
2023-10-02T23:36:14.626Z,19.83
2023-10-02T23:38:44.873Z,19.81
2023-10-02T23:41:16.210Z,19.75
2023-10-02T23:43:46.288Z,19.74
2023-10-02T23:46:15.834Z,19.72
2023-10-02T23:48:44.934Z,19.69
2023-10-02T23:51:14.566Z,19.68
2023-10-02T23:53:45.375Z,19.67
2023-10-02T23:56:15.808Z,19.64
2023-10-02T23:58:44.906Z,19.64
